createdAt,value
2023-05-18T00:02:36.568Z,99377.20
2023-05-18T00:05:35.183Z,99380.80
2023-05-18T00:08:33.081Z,99376.00
2023-05-18T00:11:30.618Z,99373.60
2023-05-18T00:14:28.298Z,99372.40
2023-05-18T00:17:26.216Z,99375.20
2023-05-18T00:20:26.850Z,99370.00
2023-05-18T00:23:25.399Z,99367.60
2023-05-18T00:26:23.396Z,99371.80
2023-05-18T00:29:21.242Z,99363.40
2023-05-18T00:32:18.676Z,99363.40
2023-05-18T00:35:16.337Z,99367.80
2023-05-18T00:38:15.501Z,99370.00
2023-05-18T00:41:13.332Z,99363.80
2023-05-18T00:44:11.116Z,99368.60
2023-05-18T00:47:09.543Z,99372.40
2023-05-18T00:50:07.198Z,99365.40
2023-05-18T00:53:04.689Z,99365.20
2023-05-18T00:56:02.984Z,99372.00
2023-05-18T00:59:00.463Z,99366.60
2023-05-18T01:01:58.232Z,99364.60
2023-05-18T01:04:55.982Z,99368.60
2023-05-18T01:07:53.424Z,99371.40
2023-05-18T01:10:51.123Z,99370.60
2023-05-18T01:13:49.109Z,99380.40
2023-05-18T01:16:47.009Z,99373.60
2023-05-18T01:19:44.956Z,99373.20
2023-05-18T01:22:42.735Z,99372.00
2023-05-18T01:25:41.386Z,99368.00
2023-05-18T01:28:38.885Z,99373.00
2023-05-18T01:31:36.701Z,99369.40
2023-05-18T01:34:34.184Z,99371.20
2023-05-18T01:37:32.033Z,99369.00
2023-05-18T01:40:29.484Z,99373.80
2023-05-18T01:43:27.368Z,99379.00
2023-05-18T01:46:25.041Z,99376.40
2023-05-18T01:49:22.505Z,99382.60
2023-05-18T01:52:20.140Z,99377.00
2023-05-18T01:55:17.560Z,99376.40
2023-05-18T01:58:15.196Z,99379.00
2023-05-18T02:01:12.656Z,99387.20
2023-05-18T02:04:10.843Z,99377.80
2023-05-18T02:07:08.752Z,99377.40
2023-05-18T02:10:06.181Z,99379.80
2023-05-18T02:13:03.820Z,99377.60
2023-05-18T02:16:01.287Z,99383.60
2023-05-18T02:19:00.736Z,99382.20
2023-05-18T02:21:58.651Z,99382.00
2023-05-18T02:24:57.359Z,99383.60
2023-05-18T02:27:54.999Z,99380.60
2023-05-18T02:30:52.695Z,99381.00
2023-05-18T02:33:50.176Z,99378.40
2023-05-18T02:36:49.108Z,99376.00
2023-05-18T02:39:46.716Z,99375.80
2023-05-18T02:42:44.227Z,99377.20
2023-05-18T02:45:41.934Z,99373.60
2023-05-18T02:48:39.701Z,99373.60
2023-05-18T02:51:37.335Z,99367.80
2023-05-18T02:54:34.834Z,99364.60
2023-05-18T02:57:33.174Z,99368.80
2023-05-18T03:00:32.289Z,99368.80
2023-05-18T03:03:29.817Z,99362.80
2023-05-18T03:06:27.690Z,99363.00
2023-05-18T03:09:25.132Z,99366.60
2023-05-18T03:12:22.939Z,99363.80
2023-05-18T03:15:20.725Z,99360.60
2023-05-18T03:18:19.403Z,99364.60
2023-05-18T03:21:17.738Z,99360.60
2023-05-18T03:24:16.324Z,99362.60
2023-05-18T03:27:16.960Z,99367.20
2023-05-18T03:30:14.433Z,99373.40
2023-05-18T03:33:12.545Z,99362.60
2023-05-18T03:36:10.165Z,99364.00
2023-05-18T03:39:08.369Z,99363.40
2023-05-18T03:42:06.152Z,99364.20
2023-05-18T03:45:03.655Z,99366.80
2023-05-18T03:48:01.497Z,99365.00
2023-05-18T03:50:58.993Z,99357.80
2023-05-18T03:53:57.201Z,99357.80
2023-05-18T03:56:54.651Z,99358.00
2023-05-18T03:59:52.316Z,99364.60
2023-05-18T04:02:51.963Z,99365.80
2023-05-18T04:05:50.337Z,99366.60
2023-05-18T04:08:48.093Z,99368.80
2023-05-18T04:11:45.591Z,99371.00
2023-05-18T04:14:49.858Z,99374.80
2023-05-18T04:17:47.362Z,99376.80
2023-05-18T04:20:46.524Z,99382.80
2023-05-18T04:23:45.135Z,99382.40
2023-05-18T04:26:42.856Z,99392.40
2023-05-18T04:29:40.794Z,99391.40
2023-05-18T04:32:38.575Z,99389.20
2023-05-18T04:35:36.378Z,99391.00
2023-05-18T04:38:34.757Z,99389.20
2023-05-18T04:41:34.586Z,99391.80
2023-05-18T04:44:34.245Z,99389.40
2023-05-18T04:47:33.154Z,99390.40
2023-05-18T04:50:30.695Z,99389.80
2023-05-18T04:53:28.761Z,99388.60
2023-05-18T04:56:26.502Z,99390.00
2023-05-18T04:59:26.687Z,99392.00
2023-05-18T05:02:24.527Z,99389.80
2023-05-18T05:05:21.985Z,99399.20
2023-05-18T05:08:19.751Z,99397.20
2023-05-18T05:11:17.197Z,99397.60
2023-05-18T05:14:14.918Z,99399.80
2023-05-18T05:17:12.867Z,99396.80
2023-05-18T05:20:10.502Z,99402.20
2023-05-18T05:23:08.432Z,99402.60
2023-05-18T05:26:05.947Z,99405.00
2023-05-18T05:29:03.785Z,99406.40
2023-05-18T05:32:01.409Z,99406.60
2023-05-18T05:34:59.304Z,99412.40
2023-05-18T05:37:56.843Z,99417.80
2023-05-18T05:40:54.552Z,99410.80
2023-05-18T05:43:52.043Z,99406.00
2023-05-18T05:46:49.763Z,99411.40
2023-05-18T05:49:47.299Z,99405.20
2023-05-18T05:52:45.091Z,99413.20
2023-05-18T05:55:42.730Z,99409.60
2023-05-18T05:58:40.214Z,99411.60
2023-05-18T06:01:38.126Z,99418.60
2023-05-18T06:04:35.674Z,99423.20
2023-05-18T06:07:33.349Z,99419.80
2023-05-18T06:10:31.244Z,99424.20
2023-05-18T06:13:29.086Z,99424.80
2023-05-18T06:16:26.638Z,99423.40
2023-05-18T06:19:24.582Z,99429.20
2023-05-18T06:22:22.558Z,99429.00
2023-05-18T06:25:20.062Z,99426.20
2023-05-18T06:28:18.103Z,99435.60
2023-05-18T06:31:15.586Z,99441.40
2023-05-18T06:34:13.441Z,99444.60
2023-05-18T06:37:11.640Z,99449.00
2023-05-18T06:40:09.782Z,99453.40
2023-05-18T06:43:07.251Z,99458.40
2023-05-18T06:46:05.084Z,99456.60
2023-05-18T06:49:02.580Z,99451.40
2023-05-18T06:52:00.551Z,99450.40
2023-05-18T06:54:58.896Z,99458.40
2023-05-18T06:57:58.474Z,99456.60
2023-05-18T07:00:56.328Z,99461.80
2023-05-18T07:03:53.880Z,99463.60
2023-05-18T07:06:51.947Z,99464.80
2023-05-18T07:09:49.983Z,99465.40
2023-05-18T07:12:47.909Z,99463.80
2023-05-18T07:15:45.473Z,99468.40
2023-05-18T07:18:43.895Z,99469.80
2023-05-18T07:21:41.943Z,99474.00
2023-05-18T07:24:39.426Z,99476.00
2023-05-18T07:27:37.248Z,99475.60
2023-05-18T07:30:34.725Z,99474.00
2023-05-18T07:33:32.563Z,99481.00
2023-05-18T07:36:30.095Z,99479.40
2023-05-18T07:39:29.723Z,99481.60
2023-05-18T07:42:27.209Z,99482.00
2023-05-18T07:45:24.908Z,99485.80
2023-05-18T07:48:22.633Z,99480.00
2023-05-18T07:51:20.151Z,99477.60
2023-05-18T07:54:17.867Z,99479.00
2023-05-18T07:57:15.364Z,99480.80
2023-05-18T08:00:13.918Z,99479.80
2023-05-18T08:03:11.562Z,99474.60
2023-05-18T08:06:09.647Z,99475.60
2023-05-18T08:09:07.313Z,99478.00
2023-05-18T08:12:04.829Z,99478.20
2023-05-18T08:15:02.449Z,99482.40
2023-05-18T08:17:59.943Z,99478.80
2023-05-18T08:20:57.756Z,99479.00
2023-05-18T08:23:55.288Z,99484.60
2023-05-18T08:26:53.456Z,99490.60
2023-05-18T08:29:50.914Z,99487.20
2023-05-18T08:32:48.680Z,99480.40
2023-05-18T08:35:46.139Z,99482.20
2023-05-18T08:38:43.966Z,99479.00
2023-05-18T08:41:41.756Z,99486.80
2023-05-18T08:44:39.213Z,99489.60
2023-05-18T08:47:36.991Z,99490.80
2023-05-18T08:50:34.574Z,99487.80
2023-05-18T08:53:32.603Z,99491.80
2023-05-18T08:56:30.067Z,99497.60
2023-05-18T08:59:28.333Z,99493.80
2023-05-18T09:02:25.807Z,99493.20
2023-05-18T09:05:24.970Z,99494.00
2023-05-18T09:08:22.861Z,99486.20
2023-05-18T09:11:21.801Z,99488.80
2023-05-18T09:14:19.524Z,99488.60
2023-05-18T09:17:17.229Z,99484.80
2023-05-18T09:20:14.681Z,99488.60
2023-05-18T09:23:13.035Z,99486.60
2023-05-18T09:26:11.551Z,99486.20
2023-05-18T09:29:09.262Z,99486.40
2023-05-18T09:32:06.873Z,99491.60
2023-05-18T09:35:04.895Z,99487.40
2023-05-18T09:38:02.569Z,99490.20
2023-05-18T09:41:01.339Z,99492.00
2023-05-18T09:43:59.098Z,99494.40
2023-05-18T09:46:56.616Z,99493.60
2023-05-18T09:49:54.343Z,99492.40
2023-05-18T09:52:51.888Z,99495.20
2023-05-18T09:55:49.689Z,99501.80
2023-05-18T09:58:47.979Z,99503.40
2023-05-18T10:01:45.766Z,99496.80
2023-05-18T10:04:43.541Z,99499.80
2023-05-18T10:07:41.173Z,99497.40
2023-05-18T10:10:38.926Z,99498.40
2023-05-18T10:13:36.409Z,99497.60
2023-05-18T10:16:34.400Z,99501.60
2023-05-18T10:19:31.912Z,99498.00
2023-05-18T10:22:29.806Z,99503.00
2023-05-18T10:25:27.340Z,99500.60
2023-05-18T10:28:28.901Z,99496.40
2023-05-18T10:31:26.762Z,99495.80
2023-05-18T10:34:24.789Z,99495.00
2023-05-18T10:37:22.555Z,99494.20
2023-05-18T10:40:20.056Z,99490.60
2023-05-18T10:43:19.890Z,99494.80
2023-05-18T10:46:18.754Z,99494.40
2023-05-18T10:49:17.530Z,99496.80
2023-05-18T10:52:16.069Z,99495.60
2023-05-18T10:55:13.637Z,99492.80
2023-05-18T10:58:14.743Z,99491.00
2023-05-18T11:01:12.281Z,99489.00
2023-05-18T11:04:09.930Z,99487.80
2023-05-18T11:07:07.678Z,99493.80
2023-05-18T11:10:05.360Z,99490.20
2023-05-18T11:13:03.040Z,99490.00
2023-05-18T11:16:00.822Z,99486.80
2023-05-18T11:18:58.652Z,99493.20
2023-05-18T11:21:56.214Z,99495.20
2023-05-18T11:24:54.486Z,99494.60
2023-05-18T11:27:51.934Z,99492.00
2023-05-18T11:30:50.329Z,99498.20
2023-05-18T11:33:47.982Z,99499.40
2023-05-18T11:36:45.755Z,99496.00
2023-05-18T11:39:55.407Z,99499.80
2023-05-18T11:42:56.552Z,99500.00
2023-05-18T11:45:55.741Z,99499.60
2023-05-18T11:48:55.312Z,99501.00
2023-05-18T11:51:53.114Z,99496.40
2023-05-18T11:54:50.586Z,99500.00
2023-05-18T11:57:48.240Z,99499.20
2023-05-18T12:00:46.742Z,99491.00
2023-05-18T12:03:46.199Z,99494.60
2023-05-18T12:06:46.859Z,99492.80
2023-05-18T12:09:45.061Z,99498.00
2023-05-18T12:12:43.430Z,99492.60
2023-05-18T12:15:41.021Z,99496.20
2023-05-18T12:18:39.341Z,99502.20
2023-05-18T12:21:37.412Z,99503.80
2023-05-18T12:24:34.895Z,99504.20
2023-05-18T12:27:32.694Z,99504.20
2023-05-18T12:30:36.211Z,99505.40
2023-05-18T12:33:34.028Z,99502.00
2023-05-18T12:36:31.647Z,99501.20
2023-05-18T12:39:29.209Z,99506.40
2023-05-18T12:42:26.877Z,99495.20
2023-05-18T12:45:24.368Z,99505.40
2023-05-18T12:48:26.846Z,99498.60
2023-05-18T12:51:24.534Z,99501.40
2023-05-18T12:54:22.185Z,99503.60
2023-05-18T12:57:21.610Z,99502.20
2023-05-18T13:00:19.155Z,99499.60
2023-05-18T13:03:16.944Z,99508.40
2023-05-18T13:06:14.610Z,99502.20
2023-05-18T13:09:12.419Z,99501.40
2023-05-18T13:12:10.108Z,99501.00
2023-05-18T13:15:07.621Z,99492.80
2023-05-18T13:18:05.690Z,99492.80
2023-05-18T13:21:03.242Z,99492.60
2023-05-18T13:24:01.218Z,99499.40
2023-05-18T13:26:58.698Z,99496.00
2023-05-18T13:29:58.790Z,99498.60
2023-05-18T13:32:56.892Z,99496.00
2023-05-18T13:35:54.407Z,99505.00
2023-05-18T13:38:52.536Z,99505.20
2023-05-18T13:41:50.068Z,99504.60
2023-05-18T13:44:47.681Z,99499.40
2023-05-18T13:47:50.734Z,99495.40
2023-05-18T13:50:48.675Z,99500.00
2023-05-18T13:53:46.471Z,99502.60
2023-05-18T13:56:43.989Z,99502.60
2023-05-18T13:59:41.798Z,99497.40
2023-05-18T14:02:39.338Z,99496.80
2023-05-18T14:05:37.324Z,99497.60
2023-05-18T14:08:34.861Z,99493.20
2023-05-18T14:11:34.903Z,99488.40
2023-05-18T14:14:32.341Z,99486.60
2023-05-18T14:17:31.068Z,99485.00
2023-05-18T14:20:29.762Z,99483.80
2023-05-18T14:23:27.730Z,99482.20
2023-05-18T14:26:25.518Z,99480.20
2023-05-18T14:29:23.040Z,99478.80
2023-05-18T14:32:22.090Z,99478.20
2023-05-18T14:35:19.708Z,99478.40
2023-05-18T14:38:17.449Z,99477.80
2023-05-18T14:41:15.472Z,99487.00
2023-05-18T14:44:13.742Z,99490.20
2023-05-18T14:47:11.566Z,99490.40
2023-05-18T14:50:09.057Z,99485.00
2023-05-18T14:53:06.927Z,99486.80
2023-05-18T14:56:08.910Z,99484.60
2023-05-18T14:59:06.453Z,99485.20
2023-05-18T15:02:04.506Z,99483.20
2023-05-18T15:05:02.033Z,99481.80
2023-05-18T15:07:59.868Z,99479.00
2023-05-18T15:10:57.393Z,99480.40
2023-05-18T15:13:55.100Z,99483.00
2023-05-18T15:16:52.833Z,99481.60
2023-05-18T15:19:50.280Z,99479.80
2023-05-18T15:22:48.184Z,99476.00
2023-05-18T15:25:46.066Z,99482.40
2023-05-18T15:28:45.358Z,99482.80
2023-05-18T15:31:42.908Z,99477.40
2023-05-18T15:34:40.682Z,99474.40
2023-05-18T15:37:38.446Z,99470.80
2023-05-18T15:40:35.936Z,99476.20
2023-05-18T15:43:33.977Z,99478.20
2023-05-18T15:46:34.578Z,99477.60
2023-05-18T15:49:32.489Z,99477.20
2023-05-18T15:52:29.926Z,99477.40
2023-05-18T15:55:27.595Z,99479.60
2023-05-18T15:58:25.401Z,99477.80
2023-05-18T16:01:22.953Z,99473.80
2023-05-18T16:04:20.937Z,99475.60
2023-05-18T16:07:18.471Z,99480.40
2023-05-18T16:10:16.093Z,99472.00
2023-05-18T16:13:13.831Z,99474.00
2023-05-18T16:16:14.281Z,99468.00
2023-05-18T16:19:12.308Z,99463.40
2023-05-18T16:22:10.052Z,99467.00
2023-05-18T16:25:07.971Z,99471.40
2023-05-18T16:28:05.437Z,99462.60
2023-05-18T16:31:04.950Z,99466.80
2023-05-18T16:34:02.395Z,99471.20
2023-05-18T16:37:00.237Z,99470.20
2023-05-18T16:39:57.753Z,99475.80
2023-05-18T16:42:55.402Z,99472.40
2023-05-18T16:45:53.227Z,99470.80
2023-05-18T16:48:50.742Z,99472.00
2023-05-18T16:51:48.474Z,99480.80
2023-05-18T16:54:46.355Z,99477.40
2023-05-18T16:57:44.541Z,99476.20
2023-05-18T17:00:42.008Z,99475.00
2023-05-18T17:03:43.323Z,99477.40
2023-05-18T17:06:40.851Z,99477.80
2023-05-18T17:09:40.627Z,99478.00
2023-05-18T17:12:38.776Z,99476.40
2023-05-18T17:15:36.499Z,99478.80
2023-05-18T17:18:34.419Z,99480.00
2023-05-18T17:21:32.279Z,99479.40
2023-05-18T17:24:29.726Z,99484.40
2023-05-18T17:27:27.636Z,99485.40
2023-05-18T17:30:25.127Z,99488.00
2023-05-18T17:33:23.794Z,99487.00
2023-05-18T17:36:21.405Z,99487.00
2023-05-18T17:39:20.408Z,99485.60
2023-05-18T17:42:18.508Z,99488.20
2023-05-18T17:45:16.090Z,99486.40
2023-05-18T17:48:13.861Z,99486.20
2023-05-18T17:51:11.422Z,99486.80
2023-05-18T17:54:09.658Z,99490.00
2023-05-18T17:57:07.234Z,99489.40
2023-05-18T18:00:07.354Z,99499.00
2023-05-18T18:03:05.003Z,99493.00
2023-05-18T18:06:02.747Z,99493.40
2023-05-18T18:09:00.576Z,99496.80
2023-05-18T18:11:58.268Z,99500.80
2023-05-18T18:14:56.694Z,99501.00
2023-05-18T18:17:54.172Z,99504.00
2023-05-18T18:20:52.552Z,99496.40
2023-05-18T18:23:50.044Z,99505.60
2023-05-18T18:26:49.409Z,99505.60
2023-05-18T18:29:46.902Z,99505.40
2023-05-18T18:32:44.812Z,99509.60
2023-05-18T18:35:43.335Z,99506.20
2023-05-18T18:38:40.799Z,99507.20
2023-05-18T18:41:39.011Z,99512.00
2023-05-18T18:44:36.569Z,99514.60
2023-05-18T18:47:34.314Z,99511.40
2023-05-18T18:50:32.458Z,99517.20
2023-05-18T18:53:30.415Z,99513.40
2023-05-18T18:56:28.665Z,99518.20
2023-05-18T18:59:26.851Z,99523.40
2023-05-18T19:02:25.134Z,99527.80
2023-05-18T19:05:24.686Z,99533.60
2023-05-18T19:08:23.329Z,99536.00
2023-05-18T19:11:22.511Z,99536.20
2023-05-18T19:14:21.266Z,99536.20
2023-05-18T19:17:19.091Z,99532.60
2023-05-18T19:20:17.012Z,99537.40
2023-05-18T19:23:14.694Z,99535.60
2023-05-18T19:26:12.222Z,99538.80
2023-05-18T19:29:09.997Z,99538.60
2023-05-18T19:32:07.872Z,99534.00
2023-05-18T19:35:06.040Z,99536.20
2023-05-18T19:38:03.702Z,99533.60
2023-05-18T19:41:01.288Z,99536.60
2023-05-18T19:43:59.115Z,99534.20
2023-05-18T19:46:56.734Z,99533.20
2023-05-18T19:49:54.783Z,99535.40
2023-05-18T19:52:52.209Z,99538.80
2023-05-18T19:55:49.988Z,99540.60
2023-05-18T19:58:47.802Z,99541.20
2023-05-18T20:01:45.264Z,99544.20
2023-05-18T20:04:43.845Z,99554.00
2023-05-18T20:07:41.903Z,99553.00
2023-05-18T20:10:39.808Z,99545.00
2023-05-18T20:13:37.724Z,99549.60
2023-05-18T20:16:39.086Z,99548.40
2023-05-18T20:19:38.177Z,99554.20
2023-05-18T20:22:35.699Z,99556.00
2023-05-18T20:25:35.419Z,99555.60
2023-05-18T20:28:33.860Z,99557.80
2023-05-18T20:31:31.657Z,99562.20
2023-05-18T20:34:29.129Z,99560.80
2023-05-18T20:37:27.230Z,99564.80
2023-05-18T20:40:24.931Z,99568.40
2023-05-18T20:43:22.408Z,99561.20
2023-05-18T20:46:24.172Z,99565.20
2023-05-18T20:49:22.376Z,99566.40
2023-05-18T20:52:20.172Z,99561.80
2023-05-18T20:55:18.741Z,99562.20
2023-05-18T20:58:18.634Z,99561.20
2023-05-18T21:01:16.537Z,99561.00
2023-05-18T21:04:14.958Z,99559.20
2023-05-18T21:07:17.001Z,99565.20
2023-05-18T21:10:14.426Z,99565.00
2023-05-18T21:13:12.071Z,99568.80
2023-05-18T21:16:09.867Z,99570.20
2023-05-18T21:19:07.383Z,99567.80
2023-05-18T21:22:05.312Z,99569.20
2023-05-18T21:25:05.251Z,99571.40
2023-05-18T21:28:02.929Z,99571.40
2023-05-18T21:31:00.450Z,99570.80
2023-05-18T21:33:58.225Z,99569.00
2023-05-18T21:36:55.947Z,99571.00
2023-05-18T21:39:53.418Z,99572.40
2023-05-18T21:42:51.068Z,99571.80
2023-05-18T21:45:48.598Z,99569.60
2023-05-18T21:48:46.333Z,99576.20
2023-05-18T21:51:43.816Z,99574.40
2023-05-18T21:54:41.488Z,99580.40
2023-05-18T21:57:39.446Z,99582.60
2023-05-18T22:00:38.149Z,99587.00
2023-05-18T22:03:35.893Z,99583.60
2023-05-18T22:06:33.372Z,99585.00
2023-05-18T22:09:31.063Z,99581.40
2023-05-18T22:12:28.466Z,99585.60
2023-05-18T22:15:26.121Z,99580.00
2023-05-18T22:18:27.713Z,99581.20
2023-05-18T22:21:25.222Z,99574.00
2023-05-18T22:24:22.935Z,99576.00
2023-05-18T22:27:20.609Z,99574.60
2023-05-18T22:30:18.374Z,99578.00
2023-05-18T22:33:17.026Z,99574.00
2023-05-18T22:36:15.049Z,99575.60
2023-05-18T22:39:12.900Z,99573.20
2023-05-18T22:42:10.430Z,99569.00
2023-05-18T22:45:08.117Z,99570.60
2023-05-18T22:48:05.696Z,99569.60
2023-05-18T22:51:04.968Z,99566.40
2023-05-18T22:54:02.453Z,99560.80
2023-05-18T22:57:00.500Z,99553.00
2023-05-18T22:59:58.273Z,99555.40
2023-05-18T23:02:56.682Z,99554.60
2023-05-18T23:05:54.529Z,99550.00
2023-05-18T23:08:52.335Z,99550.20
2023-05-18T23:11:51.697Z,99549.00
2023-05-18T23:14:49.906Z,99545.00
2023-05-18T23:17:47.822Z,99551.00
2023-05-18T23:20:46.067Z,99548.80
2023-05-18T23:23:45.755Z,99550.40
2023-05-18T23:26:43.512Z,99547.80
2023-05-18T23:29:41.087Z,99551.60
2023-05-18T23:32:38.837Z,99549.40
2023-05-18T23:35:36.469Z,99551.20
2023-05-18T23:38:38.180Z,99554.00
2023-05-18T23:41:35.935Z,99554.60
2023-05-18T23:44:33.352Z,99554.60
2023-05-18T23:47:31.025Z,99554.00
2023-05-18T23:50:28.496Z,99547.40
2023-05-18T23:53:29.516Z,99549.40
2023-05-18T23:56:27.119Z,99546.60
2023-05-18T23:59:24.605Z,99538.00
